Terminal Aerodrome Forecast
Issued by NWS Topeka, KS

Home | Current Version | Previous Version | Text Only | Print | Product List | Glossary On
Versions: 1 2 3 4 5 6 7 8 9 10 11 12 13 14
392
FTUS43 KTOP 292328
TAFTOP
TAF
KTOP 292328Z 3000/3024 04004KT P6SM FEW050
     FM300500 06002KT P6SM SCT200
     FM301400 11006KT P6SM SCT050=

USA.gov is the U.S. government's official web portal to all federal, state and local government web resources and services.